createdAt,value
2019-05-21T00:01:31.669Z,99156.53
2019-05-21T00:04:00.392Z,99162.27
2019-05-21T00:06:29.117Z,99159.25
2019-05-21T00:08:57.911Z,99163.24
2019-05-21T00:11:26.643Z,99167.66
2019-05-21T00:13:55.372Z,99164.56
2019-05-21T00:16:26.179Z,99166.84
2019-05-21T00:18:54.896Z,99160.58
2019-05-21T00:21:23.615Z,99156.56
2019-05-21T00:23:52.474Z,99154.23
2019-05-21T00:26:21.200Z,99150.06
2019-05-21T00:29:26.330Z,99139.11
2019-05-21T00:32:31.268Z,99146.75
2019-05-21T00:35:43.970Z,99149.89
2019-05-21T00:38:51.901Z,99151.64
2019-05-21T00:41:56.011Z,99157.39
2019-05-21T00:44:25.783Z,99164.58
2019-05-21T00:46:54.505Z,99168.80
2019-05-21T00:49:23.365Z,99169.55
2019-05-21T00:52:06.168Z,99172.86
2019-05-21T00:54:22.644Z,99168.06
2019-05-21T00:56:51.539Z,99168.56
2019-05-21T00:59:20.256Z,99172.75
2019-05-21T01:01:48.988Z,99166.98
2019-05-21T01:04:17.808Z,99167.03
2019-05-21T01:06:46.532Z,99166.05
2019-05-21T01:09:15.261Z,99165.02
2019-05-21T01:11:44.160Z,99158.76
2019-05-21T01:14:12.884Z,99152.45
2019-05-21T01:16:41.610Z,99154.53
2019-05-21T01:19:10.484Z,99162.16
2019-05-21T01:21:39.212Z,99164.45
2019-05-21T01:24:07.935Z,99157.58
2019-05-21T01:26:36.791Z,99157.05
2019-05-21T01:29:05.812Z,99156.55
2019-05-21T01:31:34.528Z,99162.27
2019-05-21T01:34:03.423Z,99165.82
2019-05-21T01:36:32.143Z,99167.29
2019-05-21T01:39:00.868Z,99172.08
2019-05-21T01:41:29.641Z,99171.05
2019-05-21T01:43:58.364Z,99176.08
2019-05-21T01:46:27.115Z,99178.06
2019-05-21T01:48:56.055Z,99177.31
2019-05-21T01:51:24.779Z,99184.78
2019-05-21T01:53:53.490Z,99186.37
2019-05-21T01:56:22.248Z,99183.92
2019-05-21T01:58:50.973Z,99181.06
2019-05-21T02:01:19.694Z,99185.50
2019-05-21T02:03:48.505Z,99178.36
2019-05-21T02:06:17.319Z,99187.55
2019-05-21T02:08:46.140Z,99184.17
2019-05-21T02:11:14.937Z,99180.39
2019-05-21T02:13:43.656Z,99181.54
2019-05-21T02:16:12.374Z,99192.48
2019-05-21T02:18:41.269Z,99189.75
2019-05-21T02:21:09.965Z,99186.73
2019-05-21T02:23:38.692Z,99182.12
2019-05-21T02:26:07.518Z,99189.98
2019-05-21T02:28:36.243Z,99184.50
2019-05-21T02:31:05.080Z,99181.82
2019-05-21T02:33:34.518Z,99184.95
2019-05-21T02:36:03.251Z,99187.20
2019-05-21T02:38:31.983Z,99194.65
2019-05-21T02:41:00.802Z,99203.34
2019-05-21T02:43:30.200Z,99200.84
2019-05-21T02:45:58.918Z,99198.37
2019-05-21T02:48:27.908Z,99201.83
2019-05-21T02:50:56.633Z,99206.75
2019-05-21T02:53:25.368Z,99204.73
2019-05-21T02:55:54.340Z,99203.16
2019-05-21T02:58:23.058Z,99210.09
2019-05-21T03:00:53.359Z,99213.95
2019-05-21T03:03:23.875Z,99218.38
2019-05-21T03:05:52.603Z,99221.98
2019-05-21T03:08:21.354Z,99226.86
2019-05-21T03:10:50.214Z,99225.60
2019-05-21T03:13:18.938Z,99232.99
2019-05-21T03:15:47.687Z,99228.02
2019-05-21T03:18:16.465Z,99226.46
2019-05-21T03:20:45.195Z,99229.87
2019-05-21T03:23:13.935Z,99233.77
2019-05-21T03:25:42.819Z,99235.22
2019-05-21T03:28:11.550Z,99235.53
2019-05-21T03:30:40.285Z,99235.67
2019-05-21T03:33:09.320Z,99235.39
2019-05-21T03:35:38.072Z,99245.02
2019-05-21T03:38:06.785Z,99248.23
2019-05-21T03:40:35.756Z,99240.23
2019-05-21T03:43:04.459Z,99236.77
2019-05-21T03:45:33.253Z,99242.40
2019-05-21T03:48:02.043Z,99250.04
2019-05-21T03:50:30.781Z,99249.89
2019-05-21T03:52:59.490Z,99255.20
2019-05-21T03:55:28.261Z,99251.37
2019-05-21T03:57:56.992Z,99264.08
2019-05-21T04:00:25.720Z,99264.09
2019-05-21T04:02:54.781Z,99269.09
2019-05-21T04:05:25.383Z,99266.70
2019-05-21T04:07:54.108Z,99266.67
2019-05-21T04:10:23.076Z,99263.28
2019-05-21T04:13:07.676Z,99267.27
2019-05-21T04:15:40.375Z,99270.83
2019-05-21T04:18:13.784Z,99270.34
2019-05-21T04:20:42.501Z,99271.53
2019-05-21T04:23:11.359Z,99274.89
2019-05-21T04:25:40.095Z,99276.28
2019-05-21T04:28:08.852Z,99271.27
2019-05-21T04:30:37.739Z,99264.95
2019-05-21T04:33:06.484Z,99266.42
2019-05-21T04:35:35.197Z,99266.39
2019-05-21T04:38:03.967Z,99260.80
2019-05-21T04:40:32.707Z,99263.78
2019-05-21T04:43:02.394Z,99267.34
2019-05-21T04:45:31.574Z,99275.28
2019-05-21T04:48:00.281Z,99275.78
2019-05-21T04:50:29.023Z,99272.22
2019-05-21T04:52:57.808Z,99279.38
2019-05-21T04:55:26.519Z,99278.11
2019-05-21T04:57:55.317Z,99282.17
2019-05-21T05:00:25.350Z,99291.04
2019-05-21T05:02:54.076Z,99292.39
2019-05-21T05:05:22.888Z,99297.58
2019-05-21T05:07:51.674Z,99296.08
2019-05-21T05:10:20.534Z,99292.13
2019-05-21T05:12:49.249Z,99293.62
2019-05-21T05:15:18.227Z,99295.03
2019-05-21T05:17:46.941Z,99308.47
2019-05-21T05:20:15.820Z,99299.27
2019-05-21T05:22:44.796Z,99299.52
2019-05-21T05:25:14.015Z,99301.33
2019-05-21T05:27:42.734Z,99300.20
2019-05-21T05:30:12.100Z,99298.02
2019-05-21T05:32:40.823Z,99294.52
2019-05-21T05:35:09.659Z,99293.72
2019-05-21T05:37:44.018Z,99300.52
2019-05-21T05:40:09.295Z,99303.47
2019-05-21T05:42:38.027Z,99303.79
2019-05-21T05:45:08.767Z,99304.75
2019-05-21T05:47:37.495Z,99304.50
2019-05-21T05:50:26.360Z,99302.39
2019-05-21T05:52:55.240Z,99306.30
2019-05-21T05:55:24.001Z,99309.27
2019-05-21T05:57:52.877Z,99313.13
2019-05-21T06:00:22.117Z,99303.94
2019-05-21T06:02:50.855Z,99302.42
2019-05-21T06:05:21.306Z,99299.37
2019-05-21T06:07:59.338Z,99301.71
2019-05-21T06:10:20.492Z,99300.50
2019-05-21T06:12:49.354Z,99295.90
2019-05-21T06:15:18.171Z,99291.52
2019-05-21T06:17:46.909Z,99282.75
2019-05-21T06:20:16.318Z,99284.08
2019-05-21T06:22:45.039Z,99280.03
2019-05-21T06:25:13.953Z,99278.14
2019-05-21T06:27:42.728Z,99287.55
2019-05-21T06:30:11.760Z,99282.66
2019-05-21T06:32:40.472Z,99288.88
2019-05-21T06:35:09.556Z,99294.73
2019-05-21T06:37:38.406Z,99299.19
2019-05-21T06:40:07.687Z,99297.52
2019-05-21T06:42:36.476Z,99299.61
2019-05-21T06:45:06.495Z,99296.12
2019-05-21T06:47:35.213Z,99297.58
2019-05-21T06:50:05.504Z,99301.67
2019-05-21T06:52:34.214Z,99310.95
2019-05-21T06:55:02.955Z,99301.80
2019-05-21T06:57:31.814Z,99298.55
2019-05-21T07:00:00.526Z,99303.11
2019-05-21T07:02:29.251Z,99300.23
2019-05-21T07:04:58.126Z,99308.56
2019-05-21T07:07:26.842Z,99304.03
2019-05-21T07:09:55.556Z,99302.79
2019-05-21T07:12:24.672Z,99302.12
2019-05-21T07:14:53.427Z,99301.96
2019-05-21T07:17:22.140Z,99299.20
2019-05-21T07:19:50.986Z,99304.00
2019-05-21T07:22:19.707Z,99294.86
2019-05-21T07:24:48.425Z,99287.30
2019-05-21T07:27:17.224Z,99285.39
2019-05-21T07:29:45.944Z,99291.33
2019-05-21T07:32:14.740Z,99285.77
2019-05-21T07:34:43.692Z,99296.80
2019-05-21T07:37:12.411Z,99288.98
2019-05-21T07:39:41.128Z,99289.05
2019-05-21T07:42:10.020Z,99291.43
2019-05-21T07:44:38.736Z,99288.34
2019-05-21T07:47:07.466Z,99279.30
2019-05-21T07:49:36.339Z,99289.98
2019-05-21T07:52:05.061Z,99288.17
2019-05-21T07:54:33.599Z,99283.11
2019-05-21T07:57:02.494Z,99280.62
2019-05-21T07:59:31.206Z,99282.57
2019-05-21T08:01:59.923Z,99281.70
2019-05-21T08:04:28.802Z,99279.65
2019-05-21T08:06:57.528Z,99271.95
2019-05-21T08:09:26.240Z,99271.58
2019-05-21T08:11:55.020Z,99269.67
2019-05-21T08:14:23.734Z,99268.53
2019-05-21T08:16:52.457Z,99262.34
2019-05-21T08:19:22.641Z,99260.30
2019-05-21T08:21:51.458Z,99260.63
2019-05-21T08:24:20.290Z,99254.05
2019-05-21T08:26:49.055Z,99260.44
2019-05-21T08:29:17.775Z,99255.62
2019-05-21T08:31:46.503Z,99250.95
2019-05-21T08:34:15.374Z,99251.83
2019-05-21T08:36:44.109Z,99258.64
2019-05-21T08:39:27.699Z,99248.13
2019-05-21T08:41:43.521Z,99254.75
2019-05-21T08:44:12.286Z,99253.51
2019-05-21T08:46:41.925Z,99244.72
2019-05-21T08:49:10.880Z,99243.64
2019-05-21T08:51:39.606Z,99238.94
2019-05-21T08:54:08.337Z,99235.16
2019-05-21T08:56:37.207Z,99228.94
2019-05-21T08:59:05.932Z,99232.03
2019-05-21T09:01:34.656Z,99225.55
2019-05-21T09:04:03.410Z,99234.27
2019-05-21T09:06:32.150Z,99223.28
2019-05-21T09:09:03.853Z,99230.45
2019-05-21T09:11:31.706Z,99229.73
2019-05-21T09:14:02.098Z,99231.91
2019-05-21T09:16:30.815Z,99230.69
2019-05-21T09:18:59.708Z,99227.47
2019-05-21T09:21:28.453Z,99230.14
2019-05-21T09:23:57.367Z,99225.16
2019-05-21T09:26:27.335Z,99225.14
2019-05-21T09:28:56.027Z,99222.09
2019-05-21T09:31:24.765Z,99223.63
2019-05-21T09:33:53.550Z,99221.53
2019-05-21T09:36:25.141Z,99226.44
2019-05-21T09:38:52.812Z,99220.20
2019-05-21T09:41:21.754Z,99226.15
2019-05-21T09:43:50.528Z,99219.86
2019-05-21T09:46:19.269Z,99219.06
2019-05-21T09:48:48.035Z,99220.00
2019-05-21T09:51:20.104Z,99214.95
2019-05-21T09:53:47.302Z,99218.33
2019-05-21T09:56:34.120Z,99206.47
2019-05-21T09:59:22.627Z,99218.66
2019-05-21T10:01:53.079Z,99206.88
2019-05-21T10:04:21.814Z,99206.42
2019-05-21T10:06:50.545Z,99197.45
2019-05-21T10:09:20.872Z,99204.34
2019-05-21T10:11:50.115Z,99201.81
2019-05-21T10:14:18.814Z,99198.84
2019-05-21T10:16:47.705Z,99190.57
2019-05-21T10:19:16.536Z,99192.06
2019-05-21T10:21:45.249Z,99178.13
2019-05-21T10:24:14.147Z,99177.43
2019-05-21T10:26:42.860Z,99175.57
2019-05-21T10:29:11.683Z,99174.94
2019-05-21T10:31:40.456Z,99163.33
2019-05-21T10:34:12.706Z,99167.36
2019-05-21T10:36:39.679Z,99154.34
2019-05-21T10:39:08.704Z,99162.58
2019-05-21T10:41:37.431Z,99160.58
2019-05-21T10:44:06.155Z,99165.23
2019-05-21T10:46:35.130Z,99159.86
2019-05-21T10:49:03.951Z,99154.77
2019-05-21T10:51:32.674Z,99152.84
2019-05-21T10:54:01.770Z,99147.64
2019-05-21T10:56:46.803Z,99149.77
2019-05-21T10:59:00.994Z,99145.43
2019-05-21T11:01:31.420Z,99139.44
2019-05-21T11:04:07.502Z,99146.80
2019-05-21T11:06:36.470Z,99138.25
2019-05-21T11:09:08.970Z,99130.61
2019-05-21T11:11:37.686Z,99129.63
2019-05-21T11:14:06.944Z,99127.45
2019-05-21T11:16:35.712Z,99122.50
2019-05-21T11:19:04.522Z,99124.94
2019-05-21T11:21:33.279Z,99118.20
2019-05-21T11:24:02.194Z,99118.41
2019-05-21T11:26:31.012Z,99121.47
2019-05-21T11:29:01.099Z,99111.58
2019-05-21T11:31:29.836Z,99114.15
2019-05-21T11:33:58.545Z,99110.10
2019-05-21T11:36:27.498Z,99109.59
2019-05-21T11:38:56.224Z,99112.58
2019-05-21T11:41:24.936Z,99106.39
2019-05-21T11:43:53.694Z,99111.05
2019-05-21T11:46:22.421Z,99109.20
2019-05-21T11:48:51.169Z,99101.48
2019-05-21T11:51:20.170Z,99096.77
2019-05-21T11:53:48.897Z,99092.11
2019-05-21T11:56:17.620Z,99094.30
2019-05-21T11:58:46.398Z,99092.43
2019-05-21T12:01:15.165Z,99092.34
2019-05-21T12:03:44.066Z,99097.42
2019-05-21T12:06:12.823Z,99091.20
2019-05-21T12:08:55.521Z,99095.00
2019-05-21T12:11:12.036Z,99091.67
2019-05-21T12:13:40.806Z,99085.39
2019-05-21T12:16:09.529Z,99086.87
2019-05-21T12:18:38.245Z,99083.51
2019-05-21T12:21:07.056Z,99081.13
2019-05-21T12:23:35.779Z,99071.44
2019-05-21T12:26:04.608Z,99068.19
2019-05-21T12:28:33.449Z,99067.44
2019-05-21T12:31:02.163Z,99062.34
2019-05-21T12:33:34.713Z,99059.16
2019-05-21T12:36:01.383Z,99051.24
2019-05-21T12:38:30.112Z,99035.14
2019-05-21T12:40:58.823Z,99043.95
2019-05-21T12:43:27.612Z,99036.14
2019-05-21T12:45:56.351Z,99034.48
2019-05-21T12:48:25.063Z,99036.66
2019-05-21T12:50:54.150Z,99027.77
2019-05-21T12:53:22.868Z,99025.33
2019-05-21T12:55:51.676Z,99026.66
2019-05-21T12:58:20.499Z,99028.45
2019-05-21T13:00:49.215Z,99023.11
2019-05-21T13:03:17.945Z,99021.73
2019-05-21T13:05:46.954Z,99024.04
2019-05-21T13:08:15.684Z,99018.66
2019-05-21T13:10:45.254Z,99010.54
2019-05-21T13:13:14.165Z,99017.24
2019-05-21T13:15:42.892Z,99025.63
2019-05-21T13:18:11.596Z,99014.62
2019-05-21T13:20:40.363Z,99019.73
2019-05-21T13:23:09.087Z,99016.56
2019-05-21T13:25:37.795Z,99014.39
2019-05-21T13:28:06.767Z,99017.73
2019-05-21T13:30:35.504Z,99025.02
2019-05-21T13:33:04.325Z,99026.31
2019-05-21T13:35:33.145Z,99022.72
2019-05-21T13:38:03.339Z,99022.72
2019-05-21T13:40:32.573Z,99023.63
2019-05-21T13:43:01.516Z,99021.88
2019-05-21T13:45:30.238Z,99016.09
2019-05-21T13:47:58.980Z,99027.80
2019-05-21T13:50:27.779Z,99027.01
2019-05-21T13:52:56.596Z,99030.11
2019-05-21T13:55:25.325Z,99028.39
2019-05-21T13:57:55.566Z,99024.00
2019-05-21T14:00:35.499Z,99024.63
2019-05-21T14:03:04.458Z,99016.60
2019-05-21T14:05:33.166Z,99020.88
2019-05-21T14:08:01.888Z,99011.49
2019-05-21T14:10:31.043Z,99011.11
2019-05-21T14:13:01.220Z,99008.78
2019-05-21T14:15:29.917Z,99009.50
2019-05-21T14:18:01.950Z,99012.63
2019-05-21T14:20:30.680Z,99005.56
2019-05-21T14:22:59.409Z,99006.06
2019-05-21T14:25:28.383Z,99005.05
2019-05-21T14:27:57.091Z,99006.34
2019-05-21T14:30:25.812Z,99002.83
2019-05-21T14:32:57.657Z,99005.98
2019-05-21T14:35:26.369Z,99009.76
2019-05-21T14:37:55.088Z,99012.28
2019-05-21T14:40:31.649Z,99013.34
2019-05-21T14:43:00.136Z,99002.66
2019-05-21T14:45:29.041Z,99005.23
2019-05-21T14:47:56.330Z,99009.12
2019-05-21T14:50:25.050Z,99008.09
2019-05-21T14:52:53.769Z,98997.38
2019-05-21T14:55:22.610Z,98998.02
2019-05-21T14:57:51.368Z,98991.34
2019-05-21T15:00:24.907Z,98992.61
2019-05-21T15:02:53.755Z,98992.70
2019-05-21T15:05:22.479Z,98990.27
2019-05-21T15:07:51.365Z,98984.66
2019-05-21T15:10:21.677Z,98982.80
2019-05-21T15:12:50.406Z,98980.91
2019-05-21T15:15:19.138Z,98980.98
2019-05-21T15:17:47.891Z,98980.75
2019-05-21T15:20:31.287Z,98970.16
2019-05-21T15:23:00.083Z,98978.53
2019-05-21T15:25:28.806Z,98975.11
2019-05-21T15:27:57.527Z,98973.69
2019-05-21T15:30:26.390Z,98974.13
2019-05-21T15:32:55.119Z,98975.34
2019-05-21T15:35:23.832Z,98969.83
2019-05-21T15:37:52.683Z,98975.27
2019-05-21T15:40:22.137Z,98976.07
2019-05-21T15:42:53.147Z,98983.48
2019-05-21T15:45:21.753Z,98976.44
2019-05-21T15:47:50.464Z,98978.14
2019-05-21T15:50:19.321Z,98982.11
2019-05-21T15:52:48.127Z,98985.66
2019-05-21T15:55:18.352Z,98988.81
2019-05-21T15:57:47.080Z,98996.84
2019-05-21T16:00:16.635Z,98994.63
2019-05-21T16:02:45.353Z,98994.63
2019-05-21T16:05:14.282Z,99008.22
2019-05-21T16:07:43.141Z,99010.30
2019-05-21T16:10:12.523Z,99005.35
2019-05-21T16:12:41.259Z,99018.83
2019-05-21T16:15:10.527Z,99015.88
2019-05-21T16:17:40.714Z,99018.92
2019-05-21T16:20:10.337Z,99019.85
2019-05-21T16:22:39.289Z,99019.35
2019-05-21T16:25:08.908Z,99013.89
2019-05-21T16:27:37.629Z,99027.17
2019-05-21T16:30:08.386Z,99017.17
2019-05-21T16:32:37.303Z,99020.63
2019-05-21T16:35:09.457Z,99018.85
2019-05-21T16:37:38.415Z,99016.41
2019-05-21T16:40:08.234Z,99017.11
2019-05-21T16:42:37.043Z,99028.99
2019-05-21T16:45:07.419Z,99024.63
2019-05-21T16:47:45.920Z,99025.72
2019-05-21T16:50:08.730Z,99030.39
2019-05-21T16:52:38.013Z,99030.27
2019-05-21T16:55:08.016Z,99034.00
2019-05-21T16:57:36.736Z,99043.59
2019-05-21T17:00:08.387Z,99040.95
2019-05-21T17:02:37.189Z,99046.64
2019-05-21T17:05:07.203Z,99051.51
2019-05-21T17:07:36.058Z,99051.18
2019-05-21T17:10:06.745Z,99050.05
2019-05-21T17:12:35.714Z,99062.23
2019-05-21T17:15:09.399Z,99063.52
2019-05-21T17:17:38.115Z,99072.44
2019-05-21T17:20:10.227Z,99071.30
2019-05-21T17:22:38.999Z,99075.97
2019-05-21T17:25:08.424Z,99075.50
2019-05-21T17:27:37.243Z,99088.56
2019-05-21T17:30:08.699Z,99088.22
2019-05-21T17:32:37.630Z,99087.88
2019-05-21T17:35:07.651Z,99096.88
2019-05-21T17:37:36.504Z,99099.75
2019-05-21T17:40:06.602Z,99099.38
2019-05-21T17:42:35.323Z,99102.26
2019-05-21T17:45:08.763Z,99104.14
2019-05-21T17:47:37.593Z,99107.19
2019-05-21T17:50:07.211Z,99111.95
2019-05-21T17:52:36.108Z,99107.58
2019-05-21T17:55:06.325Z,99106.05
2019-05-21T17:57:35.657Z,99118.19
2019-05-21T18:00:07.918Z,99120.25
2019-05-21T18:02:36.651Z,99127.45
2019-05-21T18:05:07.560Z,99130.48
2019-05-21T18:07:37.416Z,99136.32
2019-05-21T18:10:09.365Z,99142.18
2019-05-21T18:12:39.127Z,99144.81
2019-05-21T18:15:10.414Z,99152.94
2019-05-21T18:17:40.567Z,99150.95
2019-05-21T18:20:10.660Z,99156.19
2019-05-21T18:22:40.439Z,99155.94
2019-05-21T18:25:09.459Z,99155.02
2019-05-21T18:27:38.638Z,99167.42
2019-05-21T18:30:09.160Z,99170.00
2019-05-21T18:32:39.452Z,99172.02
2019-05-21T18:35:08.975Z,99175.25
2019-05-21T18:37:39.254Z,99181.89
2019-05-21T18:40:10.175Z,99184.02
2019-05-21T18:42:38.975Z,99188.70
2019-05-21T18:45:08.860Z,99196.98
2019-05-21T18:47:37.584Z,99198.95
2019-05-21T18:50:07.805Z,99212.92
2019-05-21T18:52:36.782Z,99216.66
2019-05-21T18:55:07.108Z,99225.34
2019-05-21T18:57:36.231Z,99232.66
2019-05-21T19:00:07.162Z,99234.84
2019-05-21T19:02:35.884Z,99243.73
2019-05-21T19:05:07.008Z,99257.48
2019-05-21T19:07:36.314Z,99258.33
2019-05-21T19:10:07.729Z,99262.31
2019-05-21T19:12:38.422Z,99264.50
2019-05-21T19:15:08.231Z,99274.20
2019-05-21T19:17:36.996Z,99271.38
2019-05-21T19:20:09.540Z,99275.44
2019-05-21T19:22:38.303Z,99277.68
2019-05-21T19:25:08.128Z,99281.27
2019-05-21T19:27:36.845Z,99285.60
2019-05-21T19:30:10.058Z,99287.97
2019-05-21T19:32:38.898Z,99287.17
2019-05-21T19:35:08.301Z,99291.34
2019-05-21T19:37:37.095Z,99295.98
2019-05-21T19:40:09.040Z,99303.16
2019-05-21T19:42:53.886Z,99301.62
2019-05-21T19:45:10.689Z,99308.05
2019-05-21T19:47:39.456Z,99302.97
2019-05-21T19:50:08.485Z,99316.17
2019-05-21T19:52:37.336Z,99319.04
2019-05-21T19:55:07.530Z,99314.07
2019-05-21T19:57:36.857Z,99326.92
2019-05-21T20:00:07.670Z,99325.83
2019-05-21T20:02:36.689Z,99327.28
2019-05-21T20:05:07.906Z,99336.81
2019-05-21T20:07:36.893Z,99340.56
2019-05-21T20:10:07.221Z,99342.65
2019-05-21T20:12:36.537Z,99348.23
2019-05-21T20:15:07.281Z,99353.83
2019-05-21T20:17:36.806Z,99355.03
2019-05-21T20:20:08.306Z,99351.54
2019-05-21T20:22:37.769Z,99359.61
2019-05-21T20:25:07.596Z,99361.47
2019-05-21T20:27:37.107Z,99365.67
2019-05-21T20:30:12.945Z,99359.19
2019-05-21T20:32:40.294Z,99359.89
2019-05-21T20:35:10.881Z,99362.34
2019-05-21T20:37:41.446Z,99364.34
2019-05-21T20:40:12.436Z,99363.71
2019-05-21T20:42:41.663Z,99367.36
2019-05-21T20:45:13.099Z,99364.88
2019-05-21T20:47:43.784Z,99364.53
2019-05-21T20:50:14.973Z,99369.30
2019-05-21T20:52:45.684Z,99372.67
2019-05-21T20:55:17.282Z,99374.25
2019-05-21T20:57:46.091Z,99364.72
2019-05-21T21:00:18.224Z,99368.91
2019-05-21T21:02:47.247Z,99373.17
2019-05-21T21:05:16.769Z,99376.81
2019-05-21T21:07:45.647Z,99373.53
2019-05-21T21:10:14.963Z,99377.16
2019-05-21T21:12:44.786Z,99376.06
2019-05-21T21:15:14.874Z,99377.48
2019-05-21T21:17:44.192Z,99375.62
2019-05-21T21:20:13.307Z,99380.77
2019-05-21T21:22:42.201Z,99383.08
2019-05-21T21:25:11.922Z,99372.55
2019-05-21T21:27:41.357Z,99373.31
2019-05-21T21:30:11.098Z,99371.88
2019-05-21T21:32:40.037Z,99370.01
2019-05-21T21:35:10.940Z,99367.06
2019-05-21T21:37:40.198Z,99365.29
2019-05-21T21:40:11.483Z,99364.19
2019-05-21T21:42:41.603Z,99367.06
2019-05-21T21:45:10.796Z,99369.47
2019-05-21T21:47:40.813Z,99370.66
2019-05-21T21:50:10.541Z,99367.98
2019-05-21T21:52:39.728Z,99367.44
2019-05-21T21:55:08.845Z,99375.11
2019-05-21T21:57:37.563Z,99373.89
2019-05-21T22:00:50.157Z,99378.38
2019-05-21T22:03:20.932Z,99381.35
2019-05-21T22:05:51.216Z,99378.72
2019-05-21T22:08:20.061Z,99385.17
2019-05-21T22:10:49.135Z,99388.10
2019-05-21T22:13:17.911Z,99387.75
2019-05-21T22:15:46.716Z,99386.30
2019-05-21T22:18:16.101Z,99387.06
2019-05-21T22:20:45.071Z,99396.14
2019-05-21T22:23:13.994Z,99393.84
2019-05-21T22:25:43.025Z,99390.00
2019-05-21T22:28:11.898Z,99395.70
2019-05-21T22:30:41.023Z,99390.44
2019-05-21T22:33:09.798Z,99387.80
2019-05-21T22:35:38.467Z,99385.50
2019-05-21T22:38:07.222Z,99385.91
2019-05-21T22:40:35.994Z,99381.84
2019-05-21T22:43:04.673Z,99386.45
2019-05-21T22:45:33.527Z,99384.19
2019-05-21T22:48:02.347Z,99391.70
2019-05-21T22:50:31.371Z,99395.10
2019-05-21T22:53:00.159Z,99394.24
2019-05-21T22:55:28.887Z,99388.47
2019-05-21T22:57:57.995Z,99386.09
2019-05-21T23:00:26.876Z,99385.83
2019-05-21T23:02:55.926Z,99386.51
2019-05-21T23:05:24.620Z,99377.49
2019-05-21T23:07:53.383Z,99381.52
2019-05-21T23:10:23.127Z,99377.46
2019-05-21T23:12:52.110Z,99379.70
2019-05-21T23:15:25.529Z,99372.73
2019-05-21T23:17:51.637Z,99368.80
2019-05-21T23:20:21.454Z,99372.28
2019-05-21T23:22:52.295Z,99379.03
2019-05-21T23:25:21.006Z,99380.76
2019-05-21T23:27:50.100Z,99381.30
2019-05-21T23:30:19.661Z,99375.89
2019-05-21T23:32:48.384Z,99381.38
2019-05-21T23:35:17.299Z,99381.38
2019-05-21T23:37:47.698Z,99377.18
2019-05-21T23:40:17.593Z,99386.91
2019-05-21T23:42:47.212Z,99377.03
2019-05-21T23:45:16.800Z,99387.16
2019-05-21T23:47:45.511Z,99383.21
2019-05-21T23:50:15.347Z,99381.33
2019-05-21T23:52:45.239Z,99383.52
2019-05-21T23:55:15.058Z,99388.31
2019-05-21T23:57:44.980Z,99385.36
